Time;durP1;ratioP1;P1;durP2;ratioP2;P2;SDS_P1;SDS_P2;PMS_P1;PMS_P2;Temp;Humidity;BMP_temperature;BMP_pressure;BME280_temperature;BME280_humidity;BME280_pressure;Samples;Min_cycle;Max_cycle;Signal;HPM_P1;HPM_P2
2024/03/04 00:01:58;;;;;;;3.30;1.48;;;21.20;32.40;;;;;;5112726;28;20221;-65
2024/03/04 00:04:26;;;;;;;2.47;0.95;;;21.20;32.50;;;;;;5114177;28;20223;-65
2024/03/04 00:06:53;;;;;;;1.52;1.02;;;21.20;32.50;;;;;;5116374;28;20275;-66
2024/03/04 00:09:20;;;;;;;3.97;1.15;;;21.20;32.50;;;;;;5116808;28;20717;-65
2024/03/04 00:11:47;;;;;;;1.92;1.20;;;21.20;32.60;;;;;;5116898;28;20567;-65
2024/03/04 00:14:14;;;;;;;2.47;1.40;;;21.20;32.60;;;;;;5116421;28;20228;-65
2024/03/04 00:16:42;;;;;;;2.13;1.17;;;21.20;32.60;;;;;;5116457;28;20213;-66
2024/03/04 00:19:09;;;;;;;2.50;1.23;;;21.20;32.70;;;;;;5116798;28;20228;-65
2024/03/04 00:21:38;;;;;;;2.67;1.30;;;21.20;32.80;;;;;;5116369;28;20268;-65
2024/03/04 00:24:07;;;;;;;2.58;1.38;;;21.20;32.80;;;;;;5116336;28;20220;-66
2024/03/04 00:26:35;;;;;;;3.13;1.15;;;21.10;32.70;;;;;;5116209;28;20764;-66
2024/03/04 00:29:03;;;;;;;2.55;0.95;;;21.10;32.70;;;;;;5115963;28;20223;-66
2024/03/04 00:31:30;;;;;;;1.38;1.00;;;21.10;32.80;;;;;;5116191;28;20791;-66
2024/03/04 00:33:57;;;;;;;2.65;1.20;;;21.10;32.80;;;;;;5116237;28;20708;-66
2024/03/04 00:36:26;;;;;;;2.22;1.17;;;21.10;32.80;;;;;;5116136;28;20211;-66
2024/03/04 00:38:55;;;;;;;2.28;1.30;;;21.10;32.80;;;;;;5116452;28;20213;-65
2024/03/04 00:41:25;;;;;;;1.25;0.82;;;21.10;32.80;;;;;;5116225;28;20195;-65
2024/03/04 00:43:53;;;;;;;2.65;1.30;;;21.10;32.80;;;;;;5115688;28;20670;-65
2024/03/04 00:46:21;;;;;;;2.60;1.10;;;21.10;32.80;;;;;;5115781;28;20236;-66
2024/03/04 00:48:48;;;;;;;3.70;1.60;;;21.10;32.80;;;;;;5115840;28;20760;-66
2024/03/04 00:51:15;;;;;;;3.70;1.20;;;21.10;32.80;;;;;;5115886;28;20181;-66
2024/03/04 00:53:44;;;;;;;2.08;1.23;;;21.10;32.90;;;;;;5116083;28;20213;-65
2024/03/04 00:56:13;;;;;;;2.72;1.30;;;21.10;32.90;;;;;;5115973;28;20195;-65
2024/03/04 00:58:40;;;;;;;2.15;1.13;;;21.10;33.00;;;;;;5115556;28;20221;-65
2024/03/04 01:01:07;;;;;;;2.33;1.25;;;21.10;32.90;;;;;;5115736;28;20196;-66
2024/03/04 01:03:34;;;;;;;2.30;1.20;;;21.10;32.90;;;;;;5115532;28;20319;-65
2024/03/04 01:06:02;;;;;;;3.40;1.25;;;21.10;32.90;;;;;;5115313;28;20722;-66
2024/03/04 01:08:31;;;;;;;3.40;1.20;;;21.20;33.00;;;;;;5115841;28;20313;-66
2024/03/04 01:10:58;;;;;;;2.03;1.20;;;21.20;33.00;;;;;;5113803;28;20192;-65
2024/03/04 01:13:26;;;;;;;2.58;1.00;;;21.20;33.60;;;;;;5115392;28;20220;-65
2024/03/04 01:15:53;;;;;;;1.23;0.95;;;21.20;32.80;;;;;;5113854;28;20232;-66
2024/03/04 01:18:21;;;;;;;3.03;1.20;;;21.20;32.80;;;;;;5115716;28;20300;-65
2024/03/04 01:20:48;;;;;;;3.67;1.20;;;21.20;32.80;;;;;;5115002;28;20193;-66
2024/03/04 01:23:15;;;;;;;2.28;1.38;;;21.20;32.90;;;;;;5115374;28;20233;-65
2024/03/04 01:25:42;;;;;;;1.95;0.90;;;21.20;32.80;;;;;;5115396;28;20409;-66
2024/03/04 01:28:09;;;;;;;2.60;1.05;;;21.20;32.90;;;;;;5115122;28;20220;-66
2024/03/04 01:30:37;;;;;;;2.95;1.08;;;21.20;32.90;;;;;;5115030;28;20651;-66
2024/03/04 01:33:06;;;;;;;2.35;1.20;;;21.20;32.80;;;;;;5115147;28;20209;-65
2024/03/04 01:35:34;;;;;;;1.95;1.10;;;21.20;32.80;;;;;;5115047;28;20224;-65
2024/03/04 01:38:01;;;;;;;2.42;1.15;;;21.20;32.80;;;;;;5115091;28;20236;-65
2024/03/04 01:40:28;;;;;;;3.33;1.48;;;21.20;32.80;;;;;;5114854;28;20280;-65
2024/03/04 01:42:55;;;;;;;2.95;1.27;;;21.20;32.90;;;;;;5114713;28;20228;-65
2024/03/04 01:45:27;;;;;;;2.60;1.30;;;21.20;32.90;;;;;;5114751;28;20181;-65
2024/03/04 01:47:58;;;;;;;1.70;1.10;;;21.20;33.00;;;;;;5114511;28;20608;-65
2024/03/04 01:50:29;;;;;;;5.03;1.40;;;21.10;33.60;;;;;;5114780;28;20278;-66
2024/03/04 01:52:58;;;;;;;1.30;1.00;;;21.20;33.00;;;;;;5114914;28;20229;-65
2024/03/04 01:55:27;;;;;;;2.58;1.05;;;21.10;33.00;;;;;;5114915;28;20192;-65
2024/03/04 01:57:54;;;;;;;4.40;1.00;;;21.10;33.00;;;;;;5114145;28;20708;-65
2024/03/04 02:00:24;;;;;;;3.28;1.30;;;21.10;33.00;;;;;;5114702;28;20192;-65
2024/03/04 02:02:53;;;;;;;2.10;1.10;;;21.10;33.00;;;;;;5114610;28;20330;-65
2024/03/04 02:05:22;;;;;;;1.50;0.98;;;21.10;33.00;;;;;;5113985;28;20197;-66
2024/03/04 02:07:49;;;;;;;2.70;1.27;;;21.10;33.10;;;;;;5114292;28;20661;-66
2024/03/04 02:10:16;;;;;;;4.15;1.33;;;21.10;33.00;;;;;;5114583;28;20208;-65
2024/03/04 02:12:44;;;;;;;1.88;0.90;;;21.10;33.10;;;;;;5114262;28;20558;-65
2024/03/04 02:15:11;;;;;;;1.95;1.00;;;21.10;33.10;;;;;;5114350;28;20311;-65
2024/03/04 02:17:39;;;;;;;4.00;1.40;;;21.10;33.10;;;;;;5114225;28;20288;-65
2024/03/04 02:20:12;;;;;;;2.03;1.00;;;21.10;33.10;;;;;;5114182;28;20186;-65
2024/03/04 02:22:41;;;;;;;2.67;1.15;;;21.10;33.10;;;;;;5114158;28;20252;-65
2024/03/04 02:25:11;;;;;;;1.88;1.00;;;21.10;33.20;;;;;;5114275;28;20189;-65
2024/03/04 02:27:38;;;;;;;3.38;1.20;;;21.10;33.20;;;;;;5113476;28;20185;-66
2024/03/04 02:30:07;;;;;;;2.65;1.40;;;21.10;33.20;;;;;;5114203;28;20268;-66
2024/03/04 02:32:35;;;;;;;2.80;1.40;;;21.10;33.20;;;;;;5113743;28;20595;-65
2024/03/04 02:35:04;;;;;;;4.40;1.33;;;21.10;33.20;;;;;;5113808;28;20277;-65
2024/03/04 02:37:32;;;;;;;1.85;1.10;;;21.10;33.20;;;;;;5113832;28;20197;-65
2024/03/04 02:40:02;;;;;;;3.13;1.33;;;21.10;33.30;;;;;;5114231;28;20586;-66
2024/03/04 02:42:30;;;;;;;1.98;1.15;;;21.10;33.30;;;;;;5113722;28;20190;-65
2024/03/04 02:44:58;;;;;;;3.60;1.20;;;21.20;33.30;;;;;;5114133;28;20221;-66
2024/03/04 02:47:25;;;;;;;2.30;1.08;;;21.20;33.20;;;;;;5113742;28;20268;-66
2024/03/04 02:49:52;;;;;;;2.00;0.90;;;21.20;33.20;;;;;;5113750;28;20304;-65
2024/03/04 02:52:18;;;;;;;2.30;1.05;;;21.20;33.10;;;;;;5113748;28;20186;-65
2024/03/04 02:54:45;;;;;;;2.00;1.08;;;21.20;33.20;;;;;;5113621;28;20854;-65
2024/03/04 02:57:14;;;;;;;3.15;1.20;;;21.20;33.20;;;;;;5113417;28;20197;-66
2024/03/04 02:59:42;;;;;;;2.53;1.00;;;21.20;33.20;;;;;;5113469;28;20299;-66
2024/03/04 03:02:09;;;;;;;1.85;1.10;;;21.20;33.20;;;;;;5113568;28;20182;-65
2024/03/04 03:04:36;;;;;;;4.07;1.13;;;21.20;33.20;;;;;;5112960;28;20669;-65
2024/03/04 03:07:03;;;;;;;4.65;1.13;;;21.20;33.20;;;;;;5113453;28;20187;-65
2024/03/04 03:09:30;;;;;;;2.97;1.33;;;21.20;33.20;;;;;;5113396;28;20300;-65
2024/03/04 03:11:57;;;;;;;2.85;1.50;;;21.20;33.20;;;;;;5113148;28;20578;-66
2024/03/04 03:14:25;;;;;;;3.05;1.23;;;21.20;33.20;;;;;;5112937;28;20236;-65
2024/03/04 03:16:53;;;;;;;3.28;1.10;;;21.20;33.30;;;;;;5113566;28;20577;-64
2024/03/04 03:19:23;;;;;;;2.92;1.20;;;21.20;33.20;;;;;;5113082;28;20295;-64
2024/03/04 03:21:52;;;;;;;3.90;1.35;;;21.20;33.30;;;;;;5123107;27;20192;-65
2024/03/04 03:24:19;;;;;;;3.88;1.38;;;21.20;33.30;;;;;;5133610;27;20371;-66
2024/03/04 03:26:46;;;;;;;3.45;1.40;;;21.20;33.30;;;;;;5133212;27;20188;-66
2024/03/04 03:29:13;;;;;;;1.95;1.10;;;21.10;33.20;;;;;;5133641;27;20299;-65
2024/03/04 03:31:42;;;;;;;3.03;1.38;;;21.10;33.20;;;;;;5133945;27;20219;-65
2024/03/04 03:34:09;;;;;;;3.20;1.40;;;21.10;33.30;;;;;;5133411;27;20237;-65
2024/03/04 03:36:41;;;;;;;4.07;1.20;;;21.10;33.30;;;;;;5133584;27;20242;-64
2024/03/04 03:39:09;;;;;;;2.95;1.10;;;21.10;33.30;;;;;;5132863;27;20251;-66
2024/03/04 03:41:36;;;;;;;3.85;1.30;;;21.10;33.30;;;;;;5133212;27;20189;-65
2024/03/04 03:44:03;;;;;;;3.47;1.13;;;21.10;33.30;;;;;;5133480;27;20316;-66
2024/03/04 03:46:30;;;;;;;3.90;1.15;;;21.10;33.30;;;;;;5133472;27;20195;-66
2024/03/04 03:48:59;;;;;;;3.25;1.48;;;21.10;33.30;;;;;;5133195;27;20212;-65
2024/03/04 03:51:26;;;;;;;2.70;1.20;;;21.10;33.30;;;;;;5133398;27;20191;-65
2024/03/04 03:53:53;;;;;;;2.65;1.10;;;21.10;33.30;;;;;;5132956;28;20216;-66
2024/03/04 03:56:20;;;;;;;3.50;1.20;;;21.10;33.40;;;;;;5132867;28;20188;-65
2024/03/04 03:58:50;;;;;;;4.85;1.13;;;21.10;33.40;;;;;;5133264;27;20244;-66
2024/03/04 04:01:17;;;;;;;3.72;1.40;;;21.10;33.40;;;;;;5133321;28;20184;-67
2024/03/04 04:03:44;;;;;;;4.57;1.30;;;21.00;33.40;;;;;;5132965;28;20275;-65
2024/03/04 04:06:12;;;;;;;6.93;1.20;;;21.10;33.50;;;;;;5132954;28;20187;-66
2024/03/04 04:08:41;;;;;;;6.20;1.30;;;21.10;33.40;;;;;;5133304;27;20212;-66
2024/03/04 04:11:08;;;;;;;3.17;1.27;;;21.10;33.40;;;;;;5132953;28;20292;-66
2024/03/04 04:13:35;;;;;;;2.72;1.08;;;21.10;33.40;;;;;;5133421;27;20299;-67
2024/03/04 04:16:02;;;;;;;3.22;1.30;;;21.10;33.40;;;;;;5153891;27;20188;-66
2024/03/04 04:18:29;;;;;;;2.40;1.13;;;21.20;33.50;;;;;;5153799;27;20239;-65
2024/03/04 04:20:56;;;;;;;3.20;1.60;;;21.20;33.40;;;;;;5153516;27;20645;-66
2024/03/04 04:23:25;;;;;;;3.47;1.40;;;21.20;33.30;;;;;;5153634;27;20237;-65
2024/03/04 04:25:52;;;;;;;3.25;1.20;;;21.20;33.30;;;;;;5153248;27;20191;-64
2024/03/04 04:28:19;;;;;;;4.75;1.20;;;21.20;33.40;;;;;;5153683;27;20326;-65
2024/03/04 04:30:46;;;;;;;4.85;1.27;;;21.20;33.40;;;;;;5153384;27;20561;-64
2024/03/04 04:33:13;;;;;;;3.95;1.35;;;21.20;33.30;;;;;;5153391;27;20218;-65
2024/03/04 04:35:40;;;;;;;3.22;1.20;;;21.20;33.30;;;;;;5153637;27;20198;-66
2024/03/04 04:38:07;;;;;;;2.50;1.10;;;21.20;33.40;;;;;;5153540;27;20266;-65
2024/03/04 04:40:35;;;;;;;9.38;1.55;;;21.10;33.30;;;;;;5153444;27;20562;-65
2024/03/04 04:43:02;;;;;;;5.07;1.60;;;21.20;33.30;;;;;;5153085;27;20184;-65
2024/03/04 04:45:29;;;;;;;4.93;1.45;;;21.20;33.30;;;;;;5153482;27;20308;-65
2024/03/04 04:47:56;;;;;;;4.10;1.15;;;21.10;33.30;;;;;;5152844;27;20558;-66
2024/03/04 04:50:23;;;;;;;3.05;1.08;;;21.10;33.30;;;;;;5154699;27;20192;-64
2024/03/04 04:52:50;;;;;;;3.78;1.50;;;21.10;33.30;;;;;;5157301;27;20184;-65
2024/03/04 04:55:17;;;;;;;2.45;1.10;;;21.10;33.30;;;;;;5157120;27;20275;-65
2024/03/04 04:57:45;;;;;;;4.57;1.60;;;21.10;33.30;;;;;;5157244;27;20179;-66
2024/03/04 05:00:14;;;;;;;3.25;1.38;;;21.10;33.40;;;;;;5156791;27;20750;-66
2024/03/04 05:02:41;;;;;;;4.45;1.50;;;21.10;33.40;;;;;;5157024;27;20279;-66
2024/03/04 05:05:09;;;;;;;3.72;1.40;;;21.10;33.40;;;;;;5156688;27;20239;-65
2024/03/04 05:07:36;;;;;;;3.38;1.38;;;21.10;33.40;;;;;;5157098;27;20195;-64
2024/03/04 05:10:04;;;;;;;4.80;1.30;;;21.10;33.40;;;;;;5156738;27;20220;-64
2024/03/04 05:12:31;;;;;;;4.28;1.70;;;21.10;33.40;;;;;;5156992;27;20226;-65
2024/03/04 05:14:59;;;;;;;3.63;1.65;;;21.10;34.10;;;;;;5156655;27;20239;-66
2024/03/04 05:17:26;;;;;;;3.53;1.50;;;21.00;33.40;;;;;;5156799;27;20198;-66
2024/03/04 05:19:53;;;;;;;3.03;1.40;;;21.00;33.40;;;;;;5156755;27;20215;-65
2024/03/04 05:22:20;;;;;;;5.22;1.33;;;21.00;33.40;;;;;;5156527;27;20645;-65
2024/03/04 05:24:47;;;;;;;3.78;1.45;;;21.00;33.40;;;;;;5156428;27;20262;-65
2024/03/04 05:27:14;;;;;;;4.93;1.30;;;21.00;33.40;;;;;;5156353;27;20180;-66
2024/03/04 05:29:41;;;;;;;3.83;1.88;;;21.00;33.30;;;;;;5156630;27;20298;-66
2024/03/04 05:32:09;;;;;;;4.57;1.70;;;21.10;33.40;;;;;;5156061;27;20579;-65
2024/03/04 05:34:39;;;;;;;4.35;1.60;;;21.00;33.30;;;;;;5156464;27;20219;-66
2024/03/04 05:37:06;;;;;;;3.55;1.70;;;21.00;33.40;;;;;;5156443;27;20195;-65
2024/03/04 05:39:33;;;;;;;3.65;1.73;;;21.00;33.30;;;;;;5156296;27;20705;-66
2024/03/04 05:42:00;;;;;;;5.00;1.83;;;21.10;33.40;;;;;;5156450;27;20191;-65
2024/03/04 05:44:26;;;;;;;3.65;1.58;;;21.00;33.30;;;;;;5156051;27;20227;-65
2024/03/04 05:46:52;;;;;;;4.32;1.70;;;21.10;33.30;;;;;;5156158;27;20219;-65
2024/03/04 05:49:21;;;;;;;5.18;1.33;;;21.10;33.30;;;;;;5155573;27;20308;-65
2024/03/04 05:51:48;;;;;;;5.55;1.52;;;21.20;33.20;;;;;;5156270;27;20236;-66
2024/03/04 05:54:15;;;;;;;3.65;1.60;;;21.20;33.10;;;;;;5156090;27;20298;-65
2024/03/04 05:56:43;;;;;;;3.67;1.58;;;21.20;33.70;;;;;;5156227;27;20180;-65
2024/03/04 05:59:10;;;;;;;4.63;1.88;;;21.20;33.10;;;;;;5155997;27;20219;-66
2024/03/04 06:01:37;;;;;;;2.85;1.60;;;21.20;33.10;;;;;;5154920;27;20188;-65
2024/03/04 06:04:05;;;;;;;3.88;1.63;;;21.10;33.00;;;;;;5155766;27;20231;-66
2024/03/04 06:06:33;;;;;;;5.03;1.70;;;21.20;33.10;;;;;;5155679;27;20671;-65
2024/03/04 06:09:02;;;;;;;2.83;1.58;;;21.20;33.00;;;;;;5155701;27;20302;-66
2024/03/04 06:11:29;;;;;;;3.08;1.70;;;21.10;33.00;;;;;;5156074;27;20190;-64
2024/03/04 06:13:56;;;;;;;3.22;1.50;;;21.10;32.90;;;;;;5155536;27;20227;-66
2024/03/04 06:16:23;;;;;;;3.08;1.77;;;21.10;32.90;;;;;;5155567;27;20283;-65
2024/03/04 06:18:50;;;;;;;4.40;1.60;;;21.10;33.00;;;;;;5155790;27;20208;-66
2024/03/04 06:21:17;;;;;;;2.75;1.40;;;21.10;33.00;;;;;;5155477;27;20266;-65
2024/03/04 06:23:46;;;;;;;3.65;1.60;;;21.10;33.00;;;;;;5155336;27;20365;-65
2024/03/04 06:26:13;;;;;;;2.65;1.60;;;21.10;33.00;;;;;;5155279;27;20194;-64
2024/03/04 06:28:40;;;;;;;2.50;1.48;;;21.10;33.00;;;;;;5155512;27;20294;-65
2024/03/04 06:31:08;;;;;;;4.45;1.70;;;21.00;32.90;;;;;;5155189;27;20180;-65
2024/03/04 06:33:35;;;;;;;3.88;1.58;;;21.10;33.00;;;;;;5155413;27;20230;-65
2024/03/04 06:36:02;;;;;;;3.80;1.55;;;21.10;33.00;;;;;;5155309;27;20186;-65
2024/03/04 06:38:30;;;;;;;2.38;1.17;;;21.10;33.00;;;;;;5155062;27;20219;-65
2024/03/04 06:40:59;;;;;;;3.58;1.77;;;21.00;32.90;;;;;;5155242;27;20191;-65
2024/03/04 06:43:26;;;;;;;2.65;1.58;;;21.00;32.90;;;;;;5155164;27;20218;-65
2024/03/04 06:45:53;;;;;;;4.00;2.00;;;21.00;32.90;;;;;;5154527;27;20212;-66
2024/03/04 06:48:20;;;;;;;2.95;1.58;;;21.00;32.90;;;;;;5154999;27;20267;-65
2024/03/04 06:50:47;;;;;;;3.33;1.65;;;21.00;32.90;;;;;;5154981;27;20180;-64
2024/03/04 06:53:14;;;;;;;4.40;1.58;;;21.00;32.90;;;;;;5154309;27;20198;-66
2024/03/04 06:55:41;;;;;;;4.40;1.60;;;21.00;32.90;;;;;;5155053;27;20630;-65
2024/03/04 06:58:09;;;;;;;4.30;1.60;;;21.00;32.90;;;;;;5154825;27;20179;-65
2024/03/04 07:00:36;;;;;;;3.88;1.90;;;21.00;32.80;;;;;;5154617;27;20194;-65
2024/03/04 07:03:04;;;;;;;4.88;2.10;;;21.00;32.80;;;;;;5154779;27;20283;-65
2024/03/04 07:05:32;;;;;;;2.45;1.40;;;21.00;32.80;;;;;;5154706;27;20207;-64
2024/03/04 07:07:59;;;;;;;4.05;1.65;;;21.00;32.80;;;;;;5154481;27;20191;-65
2024/03/04 07:10:26;;;;;;;3.58;2.00;;;21.00;32.80;;;;;;5154641;27;20580;-64
2024/03/04 07:12:53;;;;;;;4.40;1.83;;;21.00;32.80;;;;;;5154563;27;20271;-66
2024/03/04 07:15:21;;;;;;;5.00;1.80;;;21.00;32.70;;;;;;5153146;27;20819;-66
2024/03/04 07:17:48;;;;;;;3.25;1.50;;;21.10;32.80;;;;;;5154810;27;20282;-66
2024/03/04 07:20:15;;;;;;;3.42;1.70;;;21.10;32.50;;;;;;5154483;27;20223;-65
2024/03/04 07:22:42;;;;;;;3.00;1.55;;;21.20;32.50;;;;;;5154043;27;20187;-66
2024/03/04 07:25:10;;;;;;;3.05;1.38;;;21.20;32.40;;;;;;5154317;27;20231;-65
2024/03/04 07:27:37;;;;;;;3.30;1.90;;;21.20;32.40;;;;;;5154325;27;20187;-65
2024/03/04 07:30:04;;;;;;;4.20;1.83;;;21.20;32.40;;;;;;5154336;27;20216;-64
2024/03/04 07:32:33;;;;;;;2.78;1.55;;;21.20;32.40;;;;;;5154336;27;20180;-65
2024/03/04 07:35:00;;;;;;;2.53;1.20;;;21.20;32.40;;;;;;5153974;27;20219;-65
2024/03/04 07:37:27;;;;;;;2.38;1.42;;;21.20;32.40;;;;;;5153739;27;20184;-66
2024/03/04 07:39:54;;;;;;;3.38;1.60;;;21.10;32.30;;;;;;5153836;27;20234;-64
2024/03/04 07:42:20;;;;;;;2.97;1.50;;;21.20;32.40;;;;;;5153410;27;20184;-66
2024/03/04 07:44:47;;;;;;;4.93;2.10;;;21.20;32.40;;;;;;5153311;27;20718;-65
2024/03/04 07:47:14;;;;;;;2.72;1.50;;;21.20;32.40;;;;;;5140304;27;20189;-66
2024/03/04 07:49:42;;;;;;;4.32;1.90;;;21.20;32.40;;;;;;5122465;27;20231;-66
2024/03/04 07:52:09;;;;;;;4.53;1.67;;;21.30;32.50;;;;;;5116041;27;20680;-66
2024/03/04 07:54:36;;;;;;;4.45;1.42;;;21.30;32.50;;;;;;5124038;27;20303;-66
2024/03/04 07:57:03;;;;;;;3.80;1.60;;;21.30;32.50;;;;;;5122130;28;20287;-66
2024/03/04 07:59:30;;;;;;;4.53;1.45;;;21.40;32.60;;;;;;5132634;28;20216;-66
2024/03/04 08:01:57;;;;;;;3.92;1.58;;;21.40;32.60;;;;;;5132691;28;20191;-66
2024/03/04 08:04:24;;;;;;;3.38;1.80;;;21.40;32.60;;;;;;5132524;28;20232;-66
2024/03/04 08:06:53;;;;;;;4.97;1.70;;;21.50;32.70;;;;;;5132198;28;20192;-64
2024/03/04 08:09:20;;;;;;;4.28;1.70;;;21.50;32.70;;;;;;5132848;28;20216;-65
2024/03/04 08:11:47;;;;;;;4.38;1.50;;;21.50;32.70;;;;;;5132752;28;20271;-62
2024/03/04 08:14:14;;;;;;;8.70;1.80;;;21.50;32.70;;;;;;5132033;28;20228;-62
2024/03/04 08:16:41;;;;;;;2.92;1.45;;;21.60;32.80;;;;;;5132232;28;20562;-64
2024/03/04 08:19:11;;;;;;;3.88;1.65;;;21.60;32.80;;;;;;5125761;28;22038;-64
2024/03/04 08:21:38;;;;;;;6.07;1.50;;;21.60;32.80;;;;;;5128456;28;20189;-63
2024/03/04 08:24:07;;;;;;;4.68;1.60;;;21.60;32.80;;;;;;5131391;28;20220;-63
2024/03/04 08:26:34;;;;;;;3.92;1.48;;;21.60;32.80;;;;;;5134952;27;20190;-64
2024/03/04 08:29:01;;;;;;;3.17;1.48;;;21.60;32.80;;;;;;5133794;27;20728;-64
2024/03/04 08:31:31;;;;;;;3.13;1.70;;;21.60;32.70;;;;;;5127985;27;20560;-64
2024/03/04 08:33:58;;;;;;;3.00;1.42;;;21.60;32.70;;;;;;5118236;27;20221;-63
2024/03/04 08:36:25;;;;;;;5.32;1.70;;;21.60;32.80;;;;;;5134210;27;20675;-64
2024/03/04 08:38:52;;;;;;;3.17;1.13;;;21.60;32.80;;;;;;5133496;27;20212;-65
2024/03/04 08:41:20;;;;;;;12.50;1.83;;;21.60;32.80;;;;;;5135907;27;20185;-63
2024/03/04 08:43:47;;;;;;;5.82;1.58;;;21.70;32.80;;;;;;5134909;27;20610;-63
2024/03/04 08:46:15;;;;;;;3.15;1.25;;;21.70;32.80;;;;;;5135508;27;20216;-63
2024/03/04 08:48:42;;;;;;;5.18;1.50;;;21.70;32.90;;;;;;5135259;27;20654;-63
2024/03/04 08:51:09;;;;;;;3.45;1.50;;;21.70;32.80;;;;;;5082233;27;20199;-64
2024/03/04 08:53:37;;;;;;;2.90;1.33;;;21.70;32.80;;;;;;5124644;27;20670;-64
2024/03/04 08:56:05;;;;;;;2.40;1.23;;;21.80;32.90;;;;;;5127575;27;20196;-64
2024/03/04 08:58:33;;;;;;;3.10;1.20;;;21.70;32.80;;;;;;5131787;27;20211;-64
2024/03/04 09:01:01;;;;;;;4.82;1.42;;;21.80;33.00;;;;;;5130417;27;20195;-65
2024/03/04 09:03:28;;;;;;;6.60;1.58;;;21.80;32.90;;;;;;5124087;27;20192;-63
2024/03/04 09:05:55;;;;;;;2.00;1.33;;;21.80;32.90;;;;;;5122126;27;20217;-63
2024/03/04 09:08:22;;;;;;;3.83;1.27;;;21.80;32.90;;;;;;5115906;27;20273;-64
2024/03/04 09:10:49;;;;;;;3.92;1.60;;;21.80;32.90;;;;;;5134301;27;20207;-63
2024/03/04 09:13:17;;;;;;;8.27;1.30;;;21.80;32.90;;;;;;5122389;27;20196;-62
2024/03/04 09:15:45;;;;;;;4.18;1.33;;;21.80;32.90;;;;;;5111707;27;20745;-63
2024/03/04 09:18:12;;;;;;;3.30;1.52;;;21.90;33.00;;;;;;5109465;27;20280;-64
2024/03/04 09:20:40;;;;;;;3.28;1.33;;;21.90;33.10;;;;;;5109115;28;20235;-64
2024/03/04 09:23:07;;;;;;;3.20;1.35;;;21.90;33.10;;;;;;5110231;28;20217;-65
2024/03/04 09:25:34;;;;;;;2.55;1.30;;;22.00;33.10;;;;;;5109202;28;20225;-64
2024/03/04 09:28:01;;;;;;;2.75;1.27;;;22.00;33.10;;;;;;5109491;28;20193;-64
2024/03/04 09:30:28;;;;;;;6.65;1.60;;;22.00;33.10;;;;;;5110473;28;20776;-63
2024/03/04 09:32:57;;;;;;;2.65;1.33;;;22.00;33.10;;;;;;5110672;28;20212;-63
2024/03/04 09:35:24;;;;;;;3.55;1.45;;;22.00;33.30;;;;;;5109061;28;20217;-64
2024/03/04 09:37:51;;;;;;;3.55;1.60;;;22.00;33.20;;;;;;5107543;28;20186;-64
2024/03/04 09:40:18;;;;;;;4.40;1.85;;;22.00;33.30;;;;;;5110503;28;20223;-63
2024/03/04 09:42:47;;;;;;;9.35;2.25;;;22.00;33.10;;;;;;5108995;28;20196;-64
2024/03/04 09:45:15;;;;;;;8.45;1.70;;;22.00;33.30;;;;;;5110177;28;20232;-64
2024/03/04 09:47:46;;;;;;;4.20;1.48;;;22.10;33.50;;;;;;5108216;28;20991;-64
2024/03/04 09:50:14;;;;;;;11.60;1.40;;;22.10;33.60;;;;;;5105992;28;20332;-63
2024/03/04 09:52:41;;;;;;;3.97;1.50;;;22.10;33.70;;;;;;5109161;28;20274;-64
2024/03/04 09:55:09;;;;;;;4.85;1.50;;;22.10;33.40;;;;;;5107927;28;20228;-64
2024/03/04 09:57:36;;;;;;;7.22;1.83;;;22.10;33.20;;;;;;5073347;28;20204;-64
2024/03/04 10:00:04;;;;;;;5.95;1.40;;;22.20;33.40;;;;;;5108294;28;20231;-64
2024/03/04 10:02:31;;;;;;;6.10;1.55;;;22.20;33.70;;;;;;5095983;28;20198;-64
2024/03/04 10:04:58;;;;;;;5.22;1.70;;;22.20;33.70;;;;;;5107868;27;20250;-65
2024/03/04 10:07:32;;;;;;;8.35;1.40;;;22.20;33.40;;;;;;5109238;28;20197;-64
2024/03/04 10:09:59;;;;;;;4.05;1.40;;;22.30;33.60;;;;;;5108797;28;20213;-64
2024/03/04 10:12:26;;;;;;;2.92;1.10;;;22.30;33.60;;;;;;5108723;28;20316;-64
2024/03/04 10:15:06;;;;;;;3.20;1.50;;;22.30;33.50;;;;;;5111797;27;20312;-66
2024/03/04 10:17:33;;;;;;;6.22;1.83;;;22.30;33.50;;;;;;5129172;27;20196;-64
2024/03/04 10:20:00;;;;;;;4.10;1.40;;;22.40;33.50;;;;;;5109401;28;20595;-64
2024/03/04 10:22:33;;;;;;;5.97;1.67;;;22.40;33.40;;;;;;5109772;28;20286;-65
2024/03/04 10:25:05;;;;;;;7.95;1.95;;;22.40;33.50;;;;;;5107990;28;20224;-66
2024/03/04 10:27:32;;;;;;;7.18;1.60;;;22.40;33.40;;;;;;5109667;28;20196;-64
2024/03/04 10:30:12;;;;;;;6.28;1.70;;;22.40;33.40;;;;;;5096429;28;20205;-64
2024/03/04 10:32:40;;;;;;;6.38;1.60;;;22.40;33.40;;;;;;5102779;28;20189;-64
2024/03/04 10:35:07;;;;;;;5.32;1.58;;;22.40;33.40;;;;;;5100543;27;20227;-64
2024/03/04 10:37:36;;;;;;;4.40;1.50;;;22.40;33.40;;;;;;5116156;27;20211;-64
2024/03/04 10:40:05;;;;;;;4.40;1.73;;;22.40;33.40;;;;;;5104016;28;20228;-65
2024/03/04 10:42:32;;;;;;;3.38;1.35;;;22.40;33.40;;;;;;5108766;28;20189;-65
2024/03/04 10:44:59;;;;;;;3.35;1.55;;;22.40;33.40;;;;;;5105157;28;20221;-66
2024/03/04 10:47:27;;;;;;;7.22;1.58;;;22.40;33.40;;;;;;5128822;27;20644;-65
2024/03/04 10:49:54;;;;;;;2.35;1.38;;;22.50;33.50;;;;;;5107699;27;20262;-65
2024/03/04 10:52:22;;;;;;;9.35;1.90;;;22.50;33.50;;;;;;5120421;27;20194;-63
2024/03/04 10:54:50;;;;;;;3.00;1.30;;;22.40;33.40;;;;;;5108381;28;20715;-65
2024/03/04 10:57:26;;;;;;;3.17;1.40;;;22.40;33.30;;;;;;5108662;28;20284;-64
2024/03/04 10:59:56;;;;;;;7.40;1.48;;;22.40;33.30;;;;;;5107718;28;20289;-65
2024/03/04 11:02:32;;;;;;;5.15;1.50;;;22.40;33.30;;;;;;5109203;28;20196;-64
